createdAt,value
2018-12-11T00:01:05.631Z,2.80
2018-12-11T00:04:09.141Z,3.83
2018-12-11T00:07:12.267Z,3.77
2018-12-11T00:10:15.735Z,3.20
2018-12-11T00:13:19.177Z,3.47
2018-12-11T00:16:22.691Z,3.50
2018-12-11T00:19:26.708Z,3.12
2018-12-11T00:22:30.173Z,4.77
2018-12-11T00:25:33.596Z,4.00
2018-12-11T00:28:37.240Z,3.37
2018-12-11T00:31:40.791Z,3.10
2018-12-11T00:34:44.246Z,3.80
2018-12-11T00:37:47.758Z,2.93
2018-12-11T00:40:51.262Z,3.70
2018-12-11T00:43:54.854Z,2.67
2018-12-11T00:46:58.582Z,2.60
2018-12-11T00:50:02.060Z,3.17
2018-12-11T00:53:05.692Z,3.05
2018-12-11T00:56:09.172Z,3.20
2018-12-11T00:59:12.831Z,3.70
2018-12-11T01:02:16.460Z,3.33
2018-12-11T01:05:19.975Z,3.70
2018-12-11T01:08:23.700Z,3.80
2018-12-11T01:11:27.157Z,3.00
2018-12-11T01:14:30.632Z,3.15
2018-12-11T01:17:34.207Z,2.63
2018-12-11T01:20:37.682Z,2.73
2018-12-11T01:23:41.289Z,3.50
2018-12-11T01:26:44.823Z,2.70
2018-12-11T01:29:48.278Z,3.47
2018-12-11T01:32:51.732Z,3.80
2018-12-11T01:35:55.276Z,2.90
2018-12-11T01:38:58.716Z,2.83
2018-12-11T01:42:02.159Z,4.30
2018-12-11T01:45:06.670Z,2.55
2018-12-11T01:48:10.211Z,2.93
2018-12-11T01:51:13.738Z,3.20
2018-12-11T01:54:17.200Z,3.40
2018-12-11T01:57:20.761Z,3.08
2018-12-11T02:00:24.685Z,3.10
2018-12-11T02:03:28.237Z,3.50
2018-12-11T02:06:32.411Z,3.97
2018-12-11T02:09:36.029Z,2.73
2018-12-11T02:12:39.472Z,3.10
2018-12-11T02:15:44.389Z,3.53
2018-12-11T02:18:47.866Z,3.07
2018-12-11T02:21:51.373Z,2.73
2018-12-11T02:24:54.917Z,4.10
2018-12-11T02:27:58.443Z,3.40
2018-12-11T02:31:01.979Z,3.20
2018-12-11T02:34:06.053Z,3.17
2018-12-11T02:37:09.569Z,3.03
2018-12-11T02:40:13.142Z,2.70
2018-12-11T02:43:16.631Z,3.73
2018-12-11T02:46:20.200Z,2.57
2018-12-11T02:49:23.737Z,3.00
2018-12-11T02:52:27.797Z,3.05
2018-12-11T02:55:31.197Z,3.87
2018-12-11T02:58:34.766Z,3.85
2018-12-11T03:01:38.282Z,3.20
2018-12-11T03:04:41.817Z,3.10
2018-12-11T03:07:45.272Z,3.13
2018-12-11T03:10:48.788Z,2.92
2018-12-11T03:13:52.240Z,3.73
2018-12-11T03:16:55.702Z,2.97
2018-12-11T03:19:59.236Z,2.87
2018-12-11T03:23:02.728Z,2.80
2018-12-11T03:26:06.368Z,3.07
2018-12-11T03:29:09.906Z,3.00
2018-12-11T03:32:13.562Z,3.53
2018-12-11T03:35:17.043Z,2.67
2018-12-11T03:38:20.584Z,2.80
2018-12-11T03:41:24.086Z,4.20
2018-12-11T03:44:27.773Z,3.57
2018-12-11T03:47:31.377Z,2.80
2018-12-11T03:50:34.848Z,3.50
2018-12-11T03:53:38.428Z,3.42
2018-12-11T03:56:41.948Z,3.60
2018-12-11T03:59:45.452Z,2.63
2018-12-11T04:02:48.898Z,3.20
2018-12-11T04:05:52.469Z,2.83
2018-12-11T04:08:56.013Z,2.93
2018-12-11T04:11:59.596Z,2.87
2018-12-11T04:15:03.187Z,3.60
2018-12-11T04:18:06.653Z,3.77
2018-12-11T04:21:10.140Z,3.30
2018-12-11T04:24:13.604Z,2.60
2018-12-11T04:27:17.053Z,2.40
2018-12-11T04:30:20.654Z,3.07
2018-12-11T04:33:24.336Z,2.70
2018-12-11T04:36:27.991Z,2.60
2018-12-11T04:39:34.013Z,2.47
2018-12-11T04:42:37.046Z,3.17
2018-12-11T04:45:40.529Z,2.97
2018-12-11T04:48:44.033Z,3.00
2018-12-11T04:51:47.521Z,2.60
2018-12-11T04:54:51.185Z,2.23
2018-12-11T04:57:54.632Z,2.53
2018-12-11T05:00:58.228Z,2.23
2018-12-11T05:04:01.819Z,2.53
2018-12-11T05:07:05.233Z,2.47
2018-12-11T05:10:09.238Z,2.90
2018-12-11T05:13:12.827Z,2.80
2018-12-11T05:16:16.438Z,2.87
2018-12-11T05:19:19.922Z,3.50
2018-12-11T05:22:23.556Z,3.20
2018-12-11T05:31:00.434Z,2.30
2018-12-11T05:34:03.931Z,2.30
2018-12-11T05:37:07.787Z,2.20
2018-12-11T05:40:11.437Z,2.40
2018-12-11T05:43:14.970Z,2.87
2018-12-11T05:46:18.433Z,2.50
2018-12-11T05:49:21.997Z,2.03
2018-12-11T05:52:25.552Z,2.70
2018-12-11T05:55:28.992Z,1.95
2018-12-11T05:58:32.467Z,3.22
2018-12-11T06:01:36.041Z,2.37
2018-12-11T06:04:39.546Z,4.00
2018-12-11T06:07:43.206Z,2.20
2018-12-11T06:10:46.807Z,2.67
2018-12-11T06:13:50.278Z,2.60
2018-12-11T06:16:53.800Z,2.57
2018-12-11T06:19:58.117Z,2.30
2018-12-11T06:23:01.595Z,2.87
2018-12-11T06:26:05.109Z,2.30
2018-12-11T06:29:08.649Z,2.40
2018-12-11T06:32:12.234Z,3.17
2018-12-11T06:35:15.903Z,2.40
2018-12-11T06:38:19.400Z,2.93
2018-12-11T06:41:22.971Z,2.57
2018-12-11T06:49:59.774Z,2.67
2018-12-11T06:53:03.260Z,2.30
2018-12-11T06:56:06.836Z,2.93
2018-12-11T06:59:10.486Z,2.03
2018-12-11T07:02:14.380Z,2.50
2018-12-11T07:05:19.117Z,2.60
2018-12-11T07:08:22.810Z,2.70
2018-12-11T07:11:27.246Z,2.17
2018-12-11T07:14:30.720Z,2.33
2018-12-11T07:17:34.229Z,3.10
2018-12-11T07:20:37.688Z,2.65
2018-12-11T07:23:41.150Z,3.00
2018-12-11T07:26:44.624Z,2.97
2018-12-11T07:29:48.151Z,2.30
2018-12-11T07:32:51.618Z,2.47
2018-12-11T07:35:55.094Z,2.80
2018-12-11T07:38:58.604Z,3.07
2018-12-11T07:42:02.069Z,2.65
2018-12-11T07:45:05.922Z,2.70
2018-12-11T07:48:09.455Z,2.47
2018-12-11T07:51:12.918Z,2.47
2018-12-11T07:54:16.339Z,2.30
2018-12-11T07:57:19.899Z,2.70
2018-12-11T08:00:23.575Z,3.03
2018-12-11T08:03:27.204Z,2.83
2018-12-11T08:06:30.705Z,2.60
2018-12-11T08:09:34.249Z,2.72
2018-12-11T08:12:37.751Z,2.50
2018-12-11T08:15:41.275Z,3.60
2018-12-11T08:18:44.738Z,2.92
2018-12-11T08:21:48.194Z,3.37
2018-12-11T08:24:51.667Z,2.97
2018-12-11T08:27:55.130Z,3.47
2018-12-11T08:30:58.689Z,3.23
2018-12-11T08:34:02.094Z,3.87
2018-12-11T08:37:05.604Z,2.83
2018-12-11T08:40:09.037Z,3.33
2018-12-11T08:43:19.092Z,2.70
2018-12-11T08:46:22.673Z,2.23
2018-12-11T08:49:26.112Z,2.73
2018-12-11T08:52:29.759Z,3.20
2018-12-11T08:55:33.354Z,2.86
2018-12-11T08:58:36.823Z,3.50
2018-12-11T09:01:40.324Z,3.58
2018-12-11T09:04:43.828Z,3.07
2018-12-11T09:07:47.318Z,3.03
2018-12-11T09:10:50.878Z,2.70
2018-12-11T09:13:54.541Z,2.50
2018-12-11T09:16:58.534Z,3.27
2018-12-11T09:20:02.020Z,3.50
2018-12-11T09:23:05.587Z,3.10
2018-12-11T09:26:09.071Z,3.33
2018-12-11T09:29:12.558Z,3.27
2018-12-11T09:32:16.333Z,3.50
2018-12-11T09:35:19.923Z,2.03
2018-12-11T09:38:23.403Z,2.67
2018-12-11T09:41:27.374Z,2.90
2018-12-11T09:44:30.914Z,2.37
2018-12-11T09:47:34.468Z,3.10
2018-12-11T09:50:38.121Z,2.50
2018-12-11T09:53:41.663Z,3.13
2018-12-11T09:56:45.122Z,2.97
2018-12-11T09:59:48.622Z,3.70
2018-12-11T10:02:52.134Z,3.53
2018-12-11T10:05:55.679Z,2.60
2018-12-11T10:09:05.539Z,3.10
2018-12-11T10:12:09.070Z,3.17
2018-12-11T10:15:12.561Z,2.80
2018-12-11T10:18:16.067Z,3.17
2018-12-11T10:21:19.484Z,3.10
2018-12-11T10:24:25.064Z,3.30
2018-12-11T10:27:28.762Z,3.12
2018-12-11T10:30:37.688Z,3.13
2018-12-11T10:33:41.152Z,3.30
2018-12-11T10:36:44.626Z,2.90
2018-12-11T10:39:48.219Z,3.00
2018-12-11T10:42:51.717Z,3.47
2018-12-11T10:45:55.399Z,2.63
2018-12-11T10:48:58.863Z,3.60
2018-12-11T10:52:02.358Z,3.20
2018-12-11T10:55:06.097Z,3.10
2018-12-11T10:58:09.708Z,3.30
2018-12-11T11:01:18.935Z,3.20
2018-12-11T11:04:23.318Z,3.07
2018-12-11T11:07:27.340Z,2.73
2018-12-11T11:10:31.127Z,3.50
2018-12-11T11:13:34.927Z,3.10
2018-12-11T11:16:38.448Z,3.50
2018-12-11T11:19:42.038Z,3.27
2018-12-11T11:22:45.529Z,3.77
2018-12-11T11:25:49.143Z,2.90
2018-12-11T11:28:52.788Z,3.42
2018-12-11T11:31:56.457Z,3.40
2018-12-11T11:34:59.982Z,3.07
2018-12-11T11:38:03.438Z,3.77
2018-12-11T11:41:06.905Z,3.20
2018-12-11T11:44:10.425Z,4.20
2018-12-11T11:47:14.057Z,4.03
2018-12-11T11:50:23.897Z,3.80
2018-12-11T11:53:27.462Z,3.67
2018-12-11T11:56:30.921Z,3.20
2018-12-11T11:59:34.450Z,3.67
2018-12-11T12:02:38.003Z,3.93
2018-12-11T12:05:41.518Z,3.12
2018-12-11T12:08:45.059Z,3.33
2018-12-11T12:11:48.569Z,3.47
2018-12-11T12:14:51.995Z,3.40
2018-12-11T12:17:55.474Z,4.00
2018-12-11T12:20:58.957Z,3.60
2018-12-11T12:24:02.419Z,3.73
2018-12-11T12:27:05.982Z,3.33
2018-12-11T12:30:16.095Z,3.63
2018-12-11T12:33:19.559Z,4.27
2018-12-11T12:36:23.103Z,4.10
2018-12-11T12:39:27.362Z,4.15
2018-12-11T12:42:30.904Z,3.97
2018-12-11T12:45:34.361Z,3.43
2018-12-11T12:48:37.868Z,4.08
2018-12-11T12:51:41.365Z,2.80
2018-12-11T12:54:45.349Z,3.37
2018-12-11T12:57:48.814Z,2.70
2018-12-11T13:00:53.062Z,3.13
2018-12-11T13:03:56.567Z,3.40
2018-12-11T13:07:00.282Z,3.23
2018-12-11T13:10:03.879Z,2.70
2018-12-11T13:13:07.502Z,3.30
2018-12-11T13:16:11.023Z,3.33
2018-12-11T13:19:14.523Z,3.70
2018-12-11T13:22:18.116Z,3.50
2018-12-11T13:25:21.562Z,3.67
2018-12-11T13:28:25.098Z,3.57
2018-12-11T13:31:29.045Z,3.90
2018-12-11T13:34:32.542Z,3.57
2018-12-11T13:37:36.334Z,3.50
2018-12-11T13:40:40.280Z,4.00
2018-12-11T13:43:43.797Z,3.98
2018-12-11T13:46:47.609Z,4.30
2018-12-11T13:49:51.117Z,3.40
2018-12-11T13:52:54.646Z,4.40
2018-12-11T13:55:59.036Z,3.40
2018-12-11T13:59:02.636Z,4.17
2018-12-11T14:02:06.077Z,3.97
2018-12-11T14:05:09.536Z,3.73
2018-12-11T14:08:13.192Z,4.53
2018-12-11T14:11:16.711Z,4.17
2018-12-11T14:14:20.187Z,3.43
2018-12-11T14:17:23.874Z,3.50
2018-12-11T14:20:27.692Z,3.97
2018-12-11T14:23:31.263Z,3.60
2018-12-11T14:26:34.826Z,4.07
2018-12-11T14:29:38.340Z,4.30
2018-12-11T14:32:41.809Z,4.20
2018-12-11T14:35:45.441Z,3.87
2018-12-11T14:38:48.963Z,4.17
2018-12-11T14:41:52.442Z,3.67
2018-12-11T14:44:56.052Z,4.00
2018-12-11T14:47:59.512Z,4.00
2018-12-11T14:51:03.557Z,3.67
2018-12-11T14:54:07.141Z,4.62
2018-12-11T14:57:10.803Z,4.07
2018-12-11T15:00:14.348Z,4.57
2018-12-11T15:03:17.858Z,4.50
2018-12-11T15:06:21.397Z,5.13
2018-12-11T15:09:29.971Z,4.67
2018-12-11T15:12:33.613Z,5.10
2018-12-11T15:15:37.060Z,4.55
2018-12-11T15:18:40.656Z,5.10
2018-12-11T15:21:44.231Z,4.87
2018-12-11T15:24:47.768Z,5.40
2018-12-11T15:27:51.203Z,5.60
2018-12-11T15:31:05.892Z,4.17
2018-12-11T15:34:09.343Z,4.20
2018-12-11T15:37:12.928Z,4.70
2018-12-11T15:40:16.446Z,4.90
2018-12-11T15:43:20.083Z,4.10
2018-12-11T15:46:23.801Z,4.97
2018-12-11T15:49:27.723Z,4.83
2018-12-11T15:52:31.240Z,5.37
2018-12-11T15:55:34.790Z,4.77
2018-12-11T15:58:38.416Z,4.10
2018-12-11T16:01:42.049Z,5.47
2018-12-11T16:04:45.741Z,5.07
2018-12-11T16:07:49.212Z,5.28
2018-12-11T16:10:52.795Z,4.90
2018-12-11T16:13:57.460Z,5.97
2018-12-11T16:17:01.100Z,4.80
2018-12-11T16:20:05.152Z,5.03
2018-12-11T16:23:08.826Z,5.63
2018-12-11T16:26:12.472Z,5.50
2018-12-11T16:29:16.035Z,5.00
2018-12-11T16:32:19.607Z,5.00
2018-12-11T16:35:23.307Z,5.00
2018-12-11T16:38:28.011Z,4.85
2018-12-11T16:41:31.680Z,4.63
2018-12-11T16:44:35.234Z,4.33
2018-12-11T16:47:38.807Z,6.07
2018-12-11T16:50:42.362Z,5.90
2018-12-11T16:53:45.890Z,6.35
2018-12-11T16:56:49.346Z,6.57
2018-12-11T16:59:52.997Z,7.43
2018-12-11T17:02:56.488Z,7.90
2018-12-11T17:06:00.098Z,5.80
2018-12-11T17:09:05.081Z,6.00
2018-12-11T17:12:08.837Z,8.17
2018-12-11T17:15:17.429Z,8.77
2018-12-11T17:18:20.964Z,7.80
2018-12-11T17:21:24.541Z,9.00
2018-12-11T17:24:28.037Z,6.07
2018-12-11T17:27:31.574Z,5.70
2018-12-11T17:30:35.010Z,5.47
2018-12-11T17:33:38.563Z,5.10
2018-12-11T17:36:42.122Z,3.83
2018-12-11T17:39:45.777Z,3.53
2018-12-11T17:42:49.297Z,3.97
2018-12-11T17:45:52.968Z,3.70
2018-12-11T17:48:56.564Z,3.63
2018-12-11T17:52:00.233Z,3.00
2018-12-11T17:55:03.797Z,3.60
2018-12-11T17:58:07.820Z,4.27
2018-12-11T18:01:11.326Z,3.67
2018-12-11T18:04:14.882Z,3.80
2018-12-11T18:07:18.563Z,4.27
2018-12-11T18:10:23.319Z,4.57
2018-12-11T18:13:27.944Z,4.33
2018-12-11T18:16:31.540Z,4.62
2018-12-11T18:19:35.078Z,3.67
2018-12-11T18:22:38.558Z,3.62
2018-12-11T18:25:42.079Z,3.87
2018-12-11T18:28:45.578Z,4.43
2018-12-11T18:31:49.304Z,3.53
2018-12-11T18:34:53.744Z,3.90
2018-12-11T18:38:00.293Z,4.53
2018-12-11T18:41:03.851Z,4.17
2018-12-11T18:44:07.374Z,4.03
2018-12-11T18:47:11.038Z,4.40
2018-12-11T18:50:21.222Z,4.47
2018-12-11T18:53:20.533Z,5.10
2018-12-11T18:56:24.047Z,4.70
2018-12-11T18:59:27.853Z,4.97
2018-12-11T19:02:31.407Z,4.80
2018-12-11T19:05:35.064Z,5.00
2018-12-11T19:08:38.633Z,6.00
2018-12-11T19:11:42.170Z,4.87
2018-12-11T19:14:45.823Z,5.20
2018-12-11T19:17:49.323Z,5.10
2018-12-11T19:20:53.197Z,5.10
2018-12-11T19:24:01.518Z,5.40
2018-12-11T19:27:05.187Z,6.80
2018-12-11T19:30:09.077Z,6.43
2018-12-11T19:33:12.612Z,4.95
2018-12-11T19:36:16.142Z,6.77
2018-12-11T19:39:19.771Z,5.83
2018-12-11T19:42:24.094Z,8.00
2018-12-11T19:45:27.981Z,6.05
2018-12-11T19:48:31.728Z,6.33
2018-12-11T19:51:35.579Z,7.17
2018-12-11T19:54:39.151Z,7.05
2018-12-11T19:57:42.769Z,6.27
2018-12-11T20:00:46.293Z,6.10
2018-12-11T20:03:49.828Z,6.33
2018-12-11T20:06:53.385Z,5.30
2018-12-11T20:10:02.270Z,10.80
2018-12-11T20:13:06.116Z,6.43
2018-12-11T20:16:10.667Z,4.42
2018-12-11T20:19:14.238Z,4.00
2018-12-11T20:22:17.780Z,4.50
2018-12-11T20:25:21.340Z,4.03
2018-12-11T20:28:25.190Z,4.00
2018-12-11T20:31:28.684Z,4.15
2018-12-11T20:34:32.164Z,4.77
2018-12-11T20:37:35.700Z,4.67
2018-12-11T20:40:39.246Z,4.90
2018-12-11T20:43:42.838Z,5.60
2018-12-11T20:46:46.340Z,5.40
2018-12-11T20:49:49.835Z,5.50
2018-12-11T20:52:53.656Z,4.60
2018-12-11T20:55:57.186Z,5.30
2018-12-11T20:59:00.646Z,6.50
2018-12-11T21:02:04.194Z,5.87
2018-12-11T21:05:07.740Z,6.15
2018-12-11T21:08:11.229Z,6.23
2018-12-11T21:11:14.988Z,5.92
2018-12-11T21:14:18.561Z,5.57
2018-12-11T21:17:22.081Z,4.97
2018-12-11T21:20:25.587Z,5.63
2018-12-11T21:23:29.844Z,5.17
2018-12-11T21:26:33.385Z,4.70
2018-12-11T21:29:37.260Z,6.20
2018-12-11T21:32:41.675Z,6.00
2018-12-11T21:35:45.320Z,5.27
2018-12-11T21:38:49.985Z,5.00
2018-12-11T21:41:53.449Z,4.97
2018-12-11T21:44:57.036Z,5.27
2018-12-11T21:48:00.555Z,5.30
2018-12-11T21:51:04.186Z,5.90
2018-12-11T21:54:07.745Z,6.40
2018-12-11T21:57:11.280Z,6.70
2018-12-11T22:00:14.761Z,6.30
2018-12-11T22:03:18.646Z,5.87
2018-12-11T22:06:22.676Z,6.00
2018-12-11T22:09:26.355Z,5.90
2018-12-11T22:12:30.234Z,6.33
2018-12-11T22:15:33.739Z,5.83
2018-12-11T22:18:37.295Z,6.20
2018-12-11T22:21:40.829Z,6.37
2018-12-11T22:24:44.444Z,6.47
2018-12-11T22:27:47.961Z,6.57
2018-12-11T22:30:51.445Z,6.37
2018-12-11T22:33:54.916Z,7.60
2018-12-11T22:36:58.450Z,6.50
2018-12-11T22:40:02.072Z,6.35
2018-12-11T22:43:05.606Z,6.90
2018-12-11T22:46:09.306Z,6.60
2018-12-11T22:49:12.750Z,6.23
2018-12-11T22:52:16.299Z,6.08
2018-12-11T22:55:19.790Z,6.37
2018-12-11T22:58:23.289Z,6.30
2018-12-11T23:01:26.814Z,6.57
2018-12-11T23:04:30.435Z,6.10
2018-12-11T23:07:33.908Z,6.50
2018-12-11T23:10:37.394Z,6.13
2018-12-11T23:13:40.903Z,6.70
2018-12-11T23:16:44.503Z,5.80
2018-12-11T23:19:47.988Z,5.67
2018-12-11T23:22:51.615Z,5.90
2018-12-11T23:25:55.478Z,6.03
2018-12-11T23:28:58.994Z,6.37
2018-12-11T23:32:02.634Z,6.40
2018-12-11T23:35:06.480Z,5.30
2018-12-11T23:38:09.945Z,6.73
2018-12-11T23:41:13.523Z,5.75
2018-12-11T23:44:17.021Z,5.93
2018-12-11T23:47:20.613Z,6.03
2018-12-11T23:50:24.155Z,6.72
2018-12-11T23:53:28.233Z,6.07
2018-12-11T23:56:31.758Z,6.20
2018-12-11T23:59:35.399Z,5.97
